Time;durP1;ratioP1;P1;durP2;ratioP2;P2;SDS_P1;SDS_P2;PMS_P1;PMS_P2;Temp;Humidity;BMP_temperature;BMP_pressure;BME280_temperature;BME280_humidity;BME280_pressure;Samples;Min_cycle;Max_cycle;Signal;HPM_P1;HPM_P2
2021/07/02 00:01:08;;;;;;;10.73;9.60;;;;;;;23.33;100.00;99723.58;1759514;80;21071;-65
2021/07/02 00:03:35;;;;;;;11.07;9.10;;;;;;;23.38;100.00;99721.69;1756783;80;21002;-66
2021/07/02 00:06:02;;;;;;;10.90;9.47;;;;;;;23.51;100.00;99717.56;1735533;81;21106;-64
2021/07/02 00:08:28;;;;;;;9.27;8.37;;;;;;;23.50;100.00;99713.33;1765316;80;21331;-63
2021/07/02 00:10:55;;;;;;;10.53;7.93;;;;;;;23.66;100.00;99715.28;1764658;80;21155;-64
2021/07/02 00:13:21;;;;;;;9.97;8.97;;;;;;;22.77;100.00;99718.18;1764918;79;20979;-63
2021/07/02 00:15:50;;;;;;;12.50;10.00;;;;;;;22.68;100.00;99717.16;1764093;79;21012;-64
2021/07/02 00:18:16;;;;;;;9.87;8.87;;;;;;;22.69;100.00;99715.58;1764509;79;20978;-64
2021/07/02 00:20:43;;;;;;;12.00;10.13;;;;;;;22.64;100.00;99721.44;1764248;79;21046;-65
2021/07/02 00:23:09;;;;;;;10.80;9.23;;;;;;;22.76;100.00;99727.20;1764819;80;21136;-64
2021/07/02 00:25:38;;;;;;;12.30;10.03;;;;;;;22.77;100.00;99732.25;1764594;80;21393;-62
2021/07/02 00:28:06;;;;;;;12.90;10.87;;;;;;;22.73;100.00;99725.91;1763898;79;22427;-65
2021/07/02 00:30:34;;;;;;;10.87;9.77;;;;;;;22.87;100.00;99730.05;1765229;79;21413;-65
2021/07/02 00:33:01;;;;;;;10.20;8.93;;;;;;;22.81;100.00;99741.80;1764560;80;20973;-66
2021/07/02 00:35:27;;;;;;;11.40;9.77;;;;;;;22.62;100.00;99740.87;1750357;81;21147;-64
2021/07/02 00:37:55;;;;;;;14.30;11.03;;;;;;;22.61;100.00;99739.25;1749126;80;20992;-60
2021/07/02 00:40:22;;;;;;;15.60;11.90;;;;;;;22.75;100.00;99740.23;1733790;81;21065;-64
2021/07/02 00:42:49;;;;;;;11.83;10.70;;;;;;;22.66;100.00;99742.69;1764530;79;20999;-64
2021/07/02 00:45:16;;;;;;;12.07;10.73;;;;;;;22.68;100.00;99734.44;1756223;79;20966;-64
2021/07/02 00:47:42;;;;;;;11.23;10.03;;;;;;;22.72;100.00;99734.14;1764598;79;21135;-60
2021/07/02 00:50:11;;;;;;;11.70;10.07;;;;;;;22.27;100.00;99734.11;1764671;79;21400;-60
2021/07/02 00:52:38;;;;;;;11.57;9.80;;;;;;;22.29;100.00;99737.84;1764753;79;21129;-65
2021/07/02 00:55:06;;;;;;;12.97;10.60;;;;;;;22.25;100.00;99736.80;1765142;80;21045;-65
2021/07/02 00:57:33;;;;;;;10.60;9.50;;;;;;;22.14;100.00;99735.26;1764793;79;21021;-65
2021/07/02 01:00:02;;;;;;;13.73;9.40;;;;;;;22.10;100.00;99734.98;1764286;80;21151;-64
2021/07/02 01:02:30;;;;;;;10.45;8.60;;;;;;;22.17;100.00;99736.84;1741008;81;21089;-64
2021/07/02 01:04:57;;;;;;;10.63;8.93;;;;;;;22.21;100.00;99736.55;1765520;79;21029;-64
2021/07/02 01:07:24;;;;;;;10.07;9.07;;;;;;;22.30;100.00;99731.45;1753121;80;21010;-64
2021/07/02 01:09:51;;;;;;;12.00;10.30;;;;;;;22.31;100.00;99727.73;1709190;82;21511;-63
2021/07/02 01:12:18;;;;;;;13.63;9.83;;;;;;;22.40;100.00;99732.74;1733357;80;21129;-63
2021/07/02 01:14:48;;;;;;;10.73;8.67;;;;;;;22.34;100.00;99739.14;1673244;82;21003;-65
2021/07/02 01:17:17;;;;;;;13.90;9.30;;;;;;;22.34;100.00;99735.16;1732742;80;21563;-65
2021/07/02 01:19:49;;;;;;;10.73;9.13;;;;;;;22.24;100.00;99732.56;1731936;80;21530;-60
2021/07/02 01:22:22;;;;;;;11.40;9.77;;;;;;;22.19;100.00;99725.40;1732322;81;21355;-60
2021/07/02 01:24:48;;;;;;;;;;;;;;;22.16;100.00;99723.31;1754705;80;21096;-64
2021/07/02 01:27:15;;;;;;;15.00;11.57;;;;;;;22.06;100.00;99716.68;1735459;80;20120;-63
2021/07/02 01:29:44;;;;;;;11.80;10.70;;;;;;;22.05;100.00;99720.41;1760603;80;20950;-63
2021/07/02 01:32:12;;;;;;;10.50;9.50;;;;;;;22.05;100.00;99727.83;1731371;80;21024;-65
2021/07/02 01:34:40;;;;;;;12.23;9.90;;;;;;;21.87;100.00;99721.79;1732504;81;20951;-64
2021/07/02 01:37:08;;;;;;;12.97;9.93;;;;;;;21.74;100.00;99725.00;1759333;80;21169;-64
2021/07/02 01:39:37;;;;;;;9.77;8.77;;;;;;;21.81;100.00;99729.49;1732936;80;20938;-65
2021/07/02 01:42:06;;;;;;;9.07;8.17;;;;;;;21.68;100.00;99730.86;1731733;81;21040;-64
2021/07/02 01:44:33;;;;;;;13.20;8.33;;;;;;;21.63;100.00;99737.52;1732122;80;20977;-60
2021/07/02 01:46:59;;;;;;;9.03;7.70;;;;;;;21.49;100.00;99735.94;1702875;82;21523;-64
2021/07/02 01:49:27;;;;;;;9.17;7.70;;;;;;;21.50;100.00;99735.41;1759458;80;21143;-65
2021/07/02 01:51:54;;;;;;;9.33;7.90;;;;;;;21.69;100.00;99731.66;1732589;81;21607;-62
2021/07/02 01:54:23;;;;;;;10.80;9.03;;;;;;;21.72;100.00;99728.47;1732406;81;21088;-65
2021/07/02 01:56:51;;;;;;;9.93;8.93;;;;;;;21.80;100.00;99731.36;1732538;80;20973;-64
2021/07/02 01:59:19;;;;;;;9.97;8.07;;;;;;;;;;1732053;80;21070;-65
2021/07/02 02:01:48;;;;;;;9.77;8.03;;;;;;;21.97;100.00;99728.91;1700414;82;21180;-60
2021/07/02 02:04:16;;;;;;;9.17;7.77;;;;;;;21.99;100.00;99730.23;1756473;80;20923;-65
2021/07/02 02:06:43;;;;;;;10.87;7.47;;;;;;;22.15;100.00;99723.56;1736274;81;20992;-62
2021/07/02 02:09:10;;;;;;;9.57;8.43;;;;;;;22.38;100.00;99723.45;1736056;81;21091;-66
2021/07/02 02:11:38;;;;;;;11.17;8.77;;;;;;;22.67;100.00;99727.00;1764790;80;20987;-65
2021/07/02 02:14:10;;;;;;;10.13;8.27;;;;;;;22.88;100.00;99723.68;1764492;80;21128;-66
2021/07/02 02:16:36;;;;;;;11.40;8.53;;;;;;;23.29;100.00;99718.03;1764299;80;21001;-64
2021/07/02 02:19:05;;;;;;;10.73;9.37;;;;;;;23.41;100.00;99717.14;1763961;79;20912;-66
2021/07/02 02:21:32;;;;;;;9.53;8.53;;;;;;;23.79;100.00;99713.31;1764308;80;21105;-65
2021/07/02 02:23:59;;;;;;;12.07;8.77;;;;;;;24.08;100.00;99707.10;1764680;80;21004;-61
2021/07/02 02:26:25;;;;;;;8.53;7.63;;;;;;;24.32;100.00;99703.86;1764678;80;21615;-66
2021/07/02 02:28:53;;;;;;;8.33;7.43;;;;;;;24.59;100.00;99703.23;1764658;80;21105;-62
2021/07/02 02:31:20;;;;;;;9.93;8.63;;;;;;;24.79;100.00;99699.46;1764610;79;21269;-66
2021/07/02 02:33:48;;;;;;;11.80;7.70;;;;;;;25.33;100.00;99691.38;1764217;80;21035;-66
2021/07/02 02:36:15;;;;;;;10.77;7.77;;;;;;;25.77;100.00;99686.01;1764341;80;20943;-64
2021/07/02 02:38:42;;;;;;;10.03;8.93;;;;;;;26.22;100.00;99682.72;1765323;79;21545;-65
2021/07/02 02:41:09;;;;;;;9.93;8.03;;;;;;;26.54;100.00;99681.73;1739842;81;21003;-65
2021/07/02 02:43:35;;;;;;;12.10;7.90;;;;;;;26.64;100.00;99676.95;1765233;79;21020;-66
2021/07/02 02:46:02;;;;;;;7.83;7.13;;;;;;;27.15;100.00;99677.58;1763808;79;20946;-62
2021/07/02 02:48:30;;;;;;;8.00;7.12;;;;;;;27.54;100.00;99678.16;1740200;81;21533;-64
2021/07/02 02:50:57;;;;;;;10.95;7.97;;;;;;;28.05;100.00;99666.00;1764483;79;21151;-63
2021/07/02 02:53:24;;;;;;;9.08;7.50;;;;;;;28.48;100.00;99668.47;1769048;79;20914;-65
2021/07/02 02:55:53;;;;;;;8.50;6.80;;;;;;;28.92;100.00;99670.55;1766531;79;21525;-66
2021/07/02 02:58:19;;;;;;;11.28;8.00;;;;;;;29.41;100.00;99671.03;1769264;79;21484;-65
2021/07/02 03:00:46;;;;;;;8.03;7.30;;;;;;;29.82;100.00;99674.41;1754838;79;21102;-65
2021/07/02 03:03:13;;;;;;;10.20;7.17;;;;;;;30.20;100.00;99674.32;1702330;82;21245;-62
2021/07/02 03:05:39;;;;;;;10.82;7.78;;;;;;;30.54;100.00;99666.52;1693036;83;21472;-65
2021/07/02 03:08:06;;;;;;;8.50;6.58;;;;;;;30.90;100.00;99667.75;1696511;83;20955;-61
2021/07/02 03:10:36;;;;;;;8.48;7.33;;;;;;;31.32;100.00;99662.22;1697753;83;20939;-64
2021/07/02 03:13:04;;;;;;;9.18;7.00;;;;;;;31.74;100.00;99657.36;1703225;82;21066;-62
2021/07/02 03:15:32;;;;;;;7.95;6.85;;;;;;;32.14;100.00;99655.29;1702043;83;21103;-63
2021/07/02 03:18:00;;;;;;;10.98;6.42;;;;;;;32.44;100.00;99657.69;1695854;84;21508;-61
2021/07/02 03:20:27;;;;;;;8.05;6.45;;;;;;;32.86;100.00;99647.78;1700188;83;21572;-65
2021/07/02 03:22:54;;;;;;;9.50;6.47;;;;;;;33.23;100.00;99647.56;1695434;82;21124;-67
2021/07/02 03:25:21;;;;;;;7.60;5.87;;;;;;;33.61;100.00;99650.40;1696139;83;21500;-61
2021/07/02 03:27:47;;;;;;;9.30;6.30;;;;;;;33.95;100.00;99647.25;1696056;82;21391;-64
2021/07/02 03:30:15;;;;;;;9.78;6.10;;;;;;;34.31;98.69;99650.11;1694805;83;21642;-65
2021/07/02 03:32:42;;;;;;;13.25;7.65;;;;;;;34.67;93.19;99654.88;1672038;84;21117;-66
2021/07/02 03:35:11;;;;;;;7.58;6.12;;;;;;;35.20;86.80;99653.66;1677590;84;21001;-65
2021/07/02 03:37:37;;;;;;;7.78;6.22;;;;;;;35.43;80.58;99653.03;1703641;82;20999;-60
2021/07/02 03:40:08;;;;;;;7.25;6.03;;;;;;;35.89;74.93;99654.27;1703121;83;21162;-61
2021/07/02 03:42:35;;;;;;;8.80;6.50;;;;;;;36.05;71.24;99656.23;1676347;84;21090;-67
2021/07/02 03:45:05;;;;;;;10.15;6.30;;;;;;;36.17;70.29;99657.91;1676781;84;20901;-67
2021/07/02 03:47:33;;;;;;;10.13;6.58;;;;;;;36.23;67.25;99656.45;1703338;84;20994;-65
2021/07/02 03:50:00;;;;;;;7.75;6.30;;;;;;;36.54;62.84;99662.03;1702691;83;21027;-61
2021/07/02 03:52:28;;;;;;;12.20;6.90;;;;;;;36.82;58.63;99662.67;1702964;83;21098;-66
2021/07/02 03:54:55;;;;;;;10.20;7.42;;;;;;;36.70;59.19;99665.09;1676710;84;21040;-67
2021/07/02 03:57:22;;;;;;;12.35;6.67;;;;;;;36.88;58.51;99660.60;1647717;86;21005;-65
2021/07/02 03:59:51;;;;;;;7.25;6.42;;;;;;;37.05;55.16;99665.22;1702274;83;21028;-63
2021/07/02 04:02:18;;;;;;;8.33;6.17;;;;;;;37.33;56.67;99666.80;1699806;83;21144;-65
2021/07/02 04:04:45;;;;;;;8.55;6.35;;;;;;;37.79;52.18;99660.88;1697985;84;21157;-66
2021/07/02 04:07:12;;;;;;;7.37;6.53;;;;;;;38.21;51.17;99662.23;1699801;82;20964;-66
2021/07/02 04:09:40;;;;;;;11.50;6.62;;;;;;;38.85;48.24;99659.67;1697780;83;21070;-63
2021/07/02 04:12:08;;;;;;;8.35;6.58;;;;;;;38.84;45.73;99664.16;1699273;84;20983;-64
2021/07/02 04:14:35;;;;;;;8.83;6.17;;;;;;;38.17;45.86;99662.22;1691289;83;21113;-65
2021/07/02 04:17:02;;;;;;;9.58;6.58;;;;;;;37.27;47.39;99673.73;1690734;83;21161;-65
2021/07/02 04:19:28;;;;;;;8.03;6.17;;;;;;;36.37;50.61;99687.05;1647365;85;20983;-65
2021/07/02 04:21:56;;;;;;;7.15;5.70;;;;;;;35.50;55.69;99685.70;1664802;85;21010;-63
2021/07/02 04:24:23;;;;;;;8.98;5.90;;;;;;;34.54;63.15;99688.84;1630601;86;21544;-64
2021/07/02 04:26:50;;;;;;;7.62;6.45;;;;;;;33.77;70.78;99688.77;1664504;85;21030;-64
2021/07/02 04:29:18;;;;;;;17.70;7.15;;;;;;;33.02;80.31;99691.80;1636992;86;21178;-64
2021/07/02 04:31:44;;;;;;;8.48;6.70;;;;;;;32.28;90.11;99698.06;1665037;85;21837;-65
2021/07/02 04:34:11;;;;;;;8.53;6.90;;;;;;;31.68;98.01;99697.81;1636460;86;21006;-63
2021/07/02 04:36:38;;;;;;;8.63;7.25;;;;;;;31.50;100.00;99689.73;1666203;85;20979;-65
2021/07/02 04:39:06;;;;;;;8.85;7.95;;;;;;;31.24;100.00;99697.53;1635873;86;21058;-65
2021/07/02 04:41:32;;;;;;;8.85;7.42;;;;;;;31.05;100.00;99704.02;1637071;86;21176;-64
2021/07/02 04:43:59;;;;;;;8.58;7.62;;;;;;;30.98;100.00;99701.08;1667304;84;20975;-63
2021/07/02 04:46:26;;;;;;;9.38;7.42;;;;;;;31.00;100.00;99701.55;1664075;85;21070;-65
2021/07/02 04:48:54;;;;;;;14.33;7.85;;;;;;;30.88;100.00;99706.91;1665014;85;21094;-65
2021/07/02 04:51:20;;;;;;;9.40;7.90;;;;;;;30.88;100.00;99705.55;1665714;84;21023;-64
2021/07/02 04:53:48;;;;;;;17.60;8.33;;;;;;;30.95;100.00;99702.55;1665218;85;21074;-63
2021/07/02 04:56:14;;;;;;;11.03;7.62;;;;;;;31.06;100.00;99711.52;1665279;84;21094;-66
2021/07/02 04:58:42;;;;;;;10.18;8.00;;;;;;;31.15;100.00;99713.02;1641242;85;21030;-65
2021/07/02 05:01:13;;;;;;;10.98;7.58;;;;;;;31.08;100.00;99714.12;1666136;84;21098;-66
2021/07/02 05:03:38;;;;;;;10.23;8.63;;;;;;;31.12;100.00;99718.28;1675996;85;20962;-66
2021/07/02 05:06:06;;;;;;;11.12;7.87;;;;;;;31.18;100.00;99717.73;1675306;85;21326;-66
2021/07/02 05:08:34;;;;;;;10.13;7.67;;;;;;;31.53;100.00;99719.26;1676601;84;21060;-65
2021/07/02 05:11:01;;;;;;;15.18;8.50;;;;;;;31.59;100.00;99717.33;1675129;85;21562;-65
2021/07/02 05:13:28;;;;;;;10.38;8.08;;;;;;;31.52;100.00;99721.17;1673735;85;21085;-65
2021/07/02 05:15:56;;;;;;;10.30;7.53;;;;;;;31.66;100.00;99714.86;1675470;85;21105;-63
2021/07/02 05:18:23;;;;;;;10.65;7.58;;;;;;;31.88;100.00;99719.60;1675884;85;21909;-65
2021/07/02 05:20:50;;;;;;;8.68;6.90;;;;;;;31.87;100.00;99712.08;1675005;85;21037;-63
2021/07/02 05:23:16;;;;;;;10.32;8.18;;;;;;;31.87;100.00;99711.30;1676122;85;21101;-65
2021/07/02 05:25:43;;;;;;;10.88;7.70;;;;;;;31.91;100.00;99712.97;1676762;85;21649;-65
2021/07/02 05:28:10;;;;;;;10.15;7.47;;;;;;;31.93;100.00;99719.36;1675261;85;21547;-64
2021/07/02 05:30:36;;;;;;;8.53;7.23;;;;;;;32.06;100.00;99712.06;1676245;85;21204;-65
2021/07/02 05:33:03;;;;;;;9.10;7.15;;;;;;;32.58;100.00;99713.39;1675351;85;20951;-66
2021/07/02 05:35:31;;;;;;;10.85;6.08;;;;;;;32.86;100.00;99704.47;1676193;85;21097;-65
2021/07/02 05:37:57;;;;;;;10.75;6.60;;;;;;;33.60;100.00;99709.65;1676169;85;21826;-66
2021/07/02 05:40:24;;;;;;;8.03;6.35;;;;;;;34.54;93.67;99695.62;1675354;85;21059;-63
2021/07/02 05:42:50;;;;;;;7.70;5.87;;;;;;;35.75;78.94;99694.17;1675271;85;21191;-67
2021/07/02 05:45:17;;;;;;;13.62;6.70;;;;;;;36.63;67.93;99696.24;1676215;85;21077;-64
2021/07/02 05:47:49;;;;;;;8.13;5.90;;;;;;;37.39;61.95;99687.05;1675661;85;20963;-65
2021/07/02 05:50:18;;;;;;;10.18;6.33;;;;;;;37.94;56.63;99684.30;1676067;85;21171;-65
2021/07/02 05:52:46;;;;;;;8.73;5.93;;;;;;;38.15;52.92;99686.89;1675316;85;22495;-65
2021/07/02 05:55:13;;;;;;;9.55;5.87;;;;;;;38.18;52.30;99683.41;1676605;84;21128;-65
2021/07/02 05:57:40;;;;;;;10.82;6.80;;;;;;;38.50;51.85;99686.27;1675848;85;20998;-65
2021/07/02 06:00:09;;;;;;;10.88;5.72;;;;;;;38.81;49.87;99680.69;1675941;85;20955;-65
2021/07/02 06:02:37;;;;;;;7.53;5.58;;;;;;;39.09;47.91;99679.13;1681222;84;22428;-66
2021/07/02 06:05:05;;;;;;;6.53;5.25;;;;;;;39.50;46.22;99676.77;1687219;84;21719;-66
2021/07/02 06:07:52;;;;;;;9.33;5.87;;;;;;;39.95;45.18;99673.55;1690489;83;21073;-66
2021/07/02 06:10:20;;;;;;;8.23;6.45;;;;;;;40.34;43.53;99678.24;1683059;83;20969;-65
2021/07/02 06:12:47;;;;;;;7.42;6.30;;;;;;;40.69;42.09;99677.88;1689411;84;21043;-66
2021/07/02 06:15:17;;;;;;;6.75;5.83;;;;;;;40.78;41.67;99680.92;1686830;83;20971;-66
2021/07/02 06:17:45;;;;;;;9.18;6.72;;;;;;;41.21;40.74;99672.97;1689392;84;20893;-67
2021/07/02 06:20:13;;;;;;;7.40;6.60;;;;;;;41.90;39.04;99674.63;1668337;84;21134;-66
2021/07/02 06:22:40;;;;;;;7.80;6.50;;;;;;;42.36;37.56;99673.85;1685824;83;20999;-66
2021/07/02 06:25:09;;;;;;;9.05;6.37;;;;;;;42.78;36.78;99673.04;1671031;84;20965;-66
2021/07/02 06:27:35;;;;;;;7.87;7.03;;;;;;;43.15;35.06;99663.22;1670856;84;21372;-66
2021/07/02 06:30:04;;;;;;;7.83;7.03;;;;;;;42.67;35.04;99666.36;1688808;84;21508;-64
2021/07/02 06:32:32;;;;;;;;;;;;;;;43.12;34.45;99664.05;1670928;84;21191;-66
2021/07/02 06:34:59;;;;;;;13.15;7.25;;;;;;;43.46;33.90;99661.06;1633444;85;20433;-66
2021/07/02 06:37:25;;;;;;;9.93;6.47;;;;;;;43.87;33.69;99657.74;1687973;84;21039;-66
2021/07/02 06:39:52;;;;;;;8.53;6.00;;;;;;;44.33;32.65;99654.62;1671438;84;21006;-66
2021/07/02 06:42:18;;;;;;;7.95;6.20;;;;;;;44.47;31.37;99642.50;1668989;84;21423;-64
2021/07/02 06:44:45;;;;;;;9.35;6.37;;;;;;;44.65;30.29;99652.47;1688715;83;22477;-67
2021/07/02 06:47:11;;;;;;;6.35;5.75;;;;;;;44.42;30.04;99645.94;1669693;84;21018;-66
2021/07/02 06:49:39;;;;;;;7.12;5.42;;;;;;;44.42;30.16;99643.20;1670562;84;21016;-64
2021/07/02 06:52:07;;;;;;;7.10;5.35;;;;;;;44.76;29.33;99641.23;1698448;84;21164;-65
2021/07/02 06:54:35;;;;;;;6.35;5.08;;;;;;;45.07;28.29;99645.16;1695993;82;21011;-65
2021/07/02 06:57:04;;;;;;;7.05;5.92;;;;;;;45.33;27.85;99643.88;1671268;84;21236;-66
2021/07/02 06:59:37;;;;;;;6.80;5.30;;;;;;;45.15;27.50;99647.88;1670267;84;20918;-66
2021/07/02 07:02:04;;;;;;;6.40;5.78;;;;;;;45.17;28.00;99643.34;1672062;84;21529;-64
2021/07/02 07:04:37;;;;;;;7.62;5.78;;;;;;;45.29;27.36;99639.09;1689313;83;21043;-63
2021/07/02 07:07:05;;;;;;;6.28;5.17;;;;;;;45.46;27.54;99637.83;1667537;84;21460;-64
2021/07/02 07:21:43;;;;;;;8.23;6.03;;;;;;;45.77;27.56;99624.97;1790233;77;22735;-64
2021/07/02 07:24:09;;;;;;;8.25;5.12;;;;;;;45.89;26.47;99630.34;1787500;79;20956;-65
2021/07/02 07:26:36;;;;;;;6.30;4.67;;;;;;;45.78;25.79;99630.03;1796667;79;21133;-65
2021/07/02 07:29:05;;;;;;;6.95;4.95;;;;;;;45.69;24.32;99630.50;1803636;79;21010;-65
2021/07/02 07:31:31;;;;;;;10.28;5.10;;;;;;;45.32;24.28;99631.34;1775901;79;21467;-65
2021/07/02 07:33:59;;;;;;;8.03;4.60;;;;;;;45.05;25.16;99628.33;1760002;80;20948;-64
2021/07/02 07:36:27;;;;;;;6.62;4.28;;;;;;;44.98;24.74;99629.86;1760776;80;20966;-65
2021/07/02 07:38:54;;;;;;;5.03;4.53;;;;;;;44.55;24.37;99630.90;1775410;79;21150;-66
2021/07/02 07:41:23;;;;;;;7.08;4.20;;;;;;;44.55;24.37;99630.90;1763143;79;21003;-65
2021/07/02 07:43:51;;;;;;;7.17;4.10;;;;;;;44.31;23.59;99624.04;1792564;79;20962;-66
2021/07/02 07:46:17;;;;;;;7.00;4.15;;;;;;;44.40;24.07;99624.20;1789357;79;21068;-65
2021/07/02 07:48:44;;;;;;;5.37;4.42;;;;;;;44.47;23.87;99626.02;1772086;79;20922;-65
2021/07/02 07:53:43;;;;;;;7.47;4.22;;;;;;;44.61;23.56;99625.67;1776097;79;21064;-63
2021/07/02 07:56:09;;;;;;;10.03;4.67;;;;;;;44.18;24.52;99630.80;1762674;79;22214;-65
2021/07/02 07:58:36;;;;;;;6.22;3.62;;;;;;;43.85;25.18;99625.80;1770073;79;21000;-66
2021/07/02 08:01:03;;;;;;;5.58;4.78;;;;;;;43.74;25.32;99633.49;1777007;79;21128;-66
2021/07/02 08:03:29;;;;;;;7.40;4.62;;;;;;;43.75;25.30;99632.29;1782374;79;21244;-66
2021/07/02 08:05:56;;;;;;;7.78;4.85;;;;;;;43.73;25.71;99629.20;1762477;79;21482;-65
2021/07/02 08:08:22;;;;;;;9.63;4.05;;;;;;;43.73;25.63;99617.63;1762191;79;21059;-64
2021/07/02 08:10:50;;;;;;;7.92;4.45;;;;;;;43.73;26.05;99618.23;1793481;79;21658;-65
2021/07/02 08:13:17;;;;;;;7.30;4.03;;;;;;;43.70;25.85;99630.22;1793541;79;20966;-66
2021/07/02 08:15:44;;;;;;;6.42;3.67;;;;;;;43.70;25.40;99626.10;1793854;78;22104;-66
2021/07/02 08:18:11;;;;;;;7.00;4.12;;;;;;;43.73;24.89;99616.25;1792033;79;20851;-63
2021/07/02 08:20:38;;;;;;;7.22;3.25;;;;;;;43.75;25.09;99619.94;1785399;79;21064;-66
2021/07/02 08:23:09;;;;;;;5.30;3.47;;;;;;;43.86;24.54;99619.87;1783481;79;20879;-63
2021/07/02 08:25:33;;;;;;;6.40;3.83;;;;;;;43.65;24.36;99621.12;1779919;79;20996;-66
2021/07/02 08:30:44;;;;;;;6.12;3.42;;;;;;;43.53;24.61;99619.59;1793608;79;21523;-64
2021/07/02 08:33:16;;;;;;;6.03;3.40;;;;;;;43.66;25.22;99621.28;1797583;79;20908;-65
2021/07/02 08:35:39;;;;;;;5.78;3.45;;;;;;;43.70;24.92;99626.70;1781429;79;20984;-62
2021/07/02 08:38:06;;;;;;;5.58;3.40;;;;;;;43.85;24.00;99616.97;1790949;79;21439;-65
2021/07/02 08:40:33;;;;;;;4.78;3.37;;;;;;;43.91;23.87;99613.13;1795213;79;21115;-65
2021/07/02 08:42:59;;;;;;;5.95;3.30;;;;;;;43.95;22.96;99611.11;1785010;79;20921;-65
2021/07/02 08:45:27;;;;;;;5.10;3.02;;;;;;;43.95;22.72;99617.97;1783240;79;20977;-65
2021/07/02 08:47:54;;;;;;;5.47;3.70;;;;;;;43.86;23.07;99612.23;1794166;79;21507;-62
2021/07/02 08:50:22;;;;;;;4.53;3.37;;;;;;;43.94;23.35;99615.03;1786497;79;22439;-63
2021/07/02 08:52:49;;;;;;;5.80;3.02;;;;;;;43.97;23.76;99616.16;1783205;79;21127;-64
2021/07/02 08:55:15;;;;;;;4.25;3.27;;;;;;;43.99;23.08;99611.80;1783360;79;21048;-64
2021/07/02 08:57:42;;;;;;;4.95;3.20;;;;;;;44.10;23.37;99617.83;1794742;79;21438;-63
2021/07/02 09:00:10;;;;;;;5.33;3.05;;;;;;;44.09;21.94;99612.14;1785341;79;20994;-65
2021/07/02 09:02:39;;;;;;;5.25;3.90;;;;;;;43.93;22.06;99612.12;1788227;79;21359;-64
2021/07/02 09:05:33;;;;;;;5.20;3.62;;;;;;;43.65;22.94;99615.62;1769650;80;21169;-65
2021/07/02 09:08:04;;;;;;;4.65;2.98;;;;;;;43.61;22.75;99610.81;1757953;80;21584;-64
2021/07/02 09:10:34;;;;;;;6.12;2.62;;;;;;;43.64;22.32;99610.55;1754212;80;21000;-65
2021/07/02 09:13:02;;;;;;;4.45;2.75;;;;;;;43.47;22.25;99598.75;1774983;80;20895;-64
2021/07/02 09:15:29;;;;;;;3.65;2.52;;;;;;;43.24;23.03;99607.80;1756572;80;21064;-64
2021/07/02 09:18:00;;;;;;;5.08;2.60;;;;;;;43.13;23.04;99604.48;1754173;80;22327;-65
2021/07/02 09:20:35;;;;;;;3.95;2.60;;;;;;;43.18;22.10;99593.78;1771043;80;21445;-65
2021/07/02 09:23:07;;;;;;;4.47;2.95;;;;;;;43.13;21.76;99593.52;1779254;79;21429;-64
2021/07/02 09:25:39;;;;;;;3.40;2.55;;;;;;;42.97;22.41;99595.55;1773067;79;21001;-63
2021/07/02 09:28:07;;;;;;;4.40;2.47;;;;;;;42.73;22.10;99588.70;1762683;79;20986;-64
2021/07/02 09:30:40;;;;;;;4.55;2.40;;;;;;;42.45;22.06;99591.91;1768674;79;21820;-64
2021/07/02 09:33:09;;;;;;;3.42;2.62;;;;;;;42.46;21.98;99594.21;1779001;79;20983;-64
2021/07/02 09:35:47;;;;;;;6.42;2.87;;;;;;;42.41;22.29;99598.80;1761971;79;20918;-64
2021/07/02 09:38:16;;;;;;;4.95;2.60;;;;;;;42.34;21.73;99594.03;1762913;79;21503;-64
2021/07/02 09:40:47;;;;;;;4.00;2.62;;;;;;;42.42;22.10;99588.61;1762698;79;21042;-65
2021/07/02 09:43:17;;;;;;;5.72;2.75;;;;;;;42.51;22.88;99582.80;1761992;79;21022;-65
2021/07/02 09:45:52;;;;;;;3.75;2.50;;;;;;;42.57;23.32;99575.46;1768794;79;20995;-65
2021/07/02 09:48:24;;;;;;;4.05;2.72;;;;;;;42.55;23.33;99577.26;1767992;79;21082;-65
2021/07/02 09:50:57;;;;;;;5.47;3.10;;;;;;;42.53;23.30;99571.41;1779988;79;20895;-64
2021/07/02 09:53:28;;;;;;;3.85;2.65;;;;;;;42.46;24.24;99578.38;1763946;79;20997;-66
2021/07/02 09:55:57;;;;;;;5.78;3.20;;;;;;;42.38;24.27;99576.34;1768881;79;21133;-65
2021/07/02 09:58:29;;;;;;;4.25;2.52;;;;;;;42.51;24.63;99576.55;1788988;78;20915;-66
2021/07/02 10:01:03;;;;;;;6.60;2.50;;;;;;;42.61;23.67;99567.34;1784184;78;20947;-66
2021/07/02 10:03:34;;;;;;;5.25;2.98;;;;;;;42.71;24.05;99571.14;1785886;78;20951;-65
2021/07/02 10:06:14;;;;;;;5.30;2.87;;;;;;;42.70;23.47;99570.97;1790041;78;20992;-64
2021/07/02 10:08:42;;;;;;;6.45;3.35;;;;;;;42.65;23.37;99573.54;1785569;78;21259;-65
2021/07/02 10:11:10;;;;;;;4.10;2.67;;;;;;;42.62;24.36;99575.77;1785932;78;21551;-65
2021/07/02 10:13:43;;;;;;;5.60;2.70;;;;;;;42.57;23.74;99571.34;1786022;78;20992;-65
2021/07/02 10:16:11;;;;;;;4.62;3.75;;;;;;;42.55;23.29;99572.38;1785232;78;20931;-64
2021/07/02 10:18:51;;;;;;;5.47;3.10;;;;;;;42.43;23.21;99570.41;1785321;78;21419;-66
2021/07/02 10:21:19;;;;;;;6.58;2.83;;;;;;;42.37;23.60;99566.58;1793911;78;21183;-66
2021/07/02 10:23:49;;;;;;;6.67;3.15;;;;;;;42.42;24.15;99558.48;1785953;78;20892;-64
2021/07/02 10:26:19;;;;;;;6.10;2.95;;;;;;;42.61;24.09;99560.50;1784743;78;21075;-64
2021/07/02 10:28:46;;;;;;;4.58;3.17;;;;;;;42.76;23.83;99554.20;1789084;78;21037;-64
2021/07/02 10:31:16;;;;;;;5.05;3.05;;;;;;;42.69;24.41;99547.47;1785631;78;20963;-65
2021/07/02 10:33:49;;;;;;;5.03;3.72;;;;;;;42.80;24.65;99548.66;1785712;78;21099;-66
2021/07/02 10:36:17;;;;;;;4.40;2.92;;;;;;;42.72;25.12;99552.13;1783693;78;21330;-65
2021/07/02 10:38:47;;;;;;;5.17;3.17;;;;;;;42.45;25.39;99538.47;1792184;78;21541;-64
2021/07/02 10:41:21;;;;;;;3.58;2.60;;;;;;;42.15;25.87;99542.06;1785733;78;21190;-64
2021/07/02 10:44:12;;;;;;;5.25;2.50;;;;;;;42.04;25.42;99542.22;1785534;78;20937;-63
2021/07/02 10:46:48;;;;;;;;;;;;;;;42.02;24.90;99538.54;1792106;78;21874;-65
2021/07/02 10:49:17;;;;;;;4.12;2.25;;;;;;;41.65;24.94;99539.42;1785683;78;20084;-63
2021/07/02 10:51:53;;;;;;;2.87;2.30;;;;;;;41.49;24.77;99537.30;1784570;78;21118;-65
2021/07/02 10:54:27;;;;;;;4.85;2.98;;;;;;;41.41;24.48;99538.58;1785381;78;20982;-65
2021/07/02 10:57:02;;;;;;;4.53;2.67;;;;;;;41.19;25.12;99539.39;1785712;78;21043;-64
2021/07/02 10:59:41;;;;;;;4.70;2.83;;;;;;;41.15;25.06;99535.16;1785586;78;21129;-64
2021/07/02 11:02:16;;;;;;;4.83;2.40;;;;;;;41.08;24.50;99532.67;1769032;78;21070;-65
2021/07/02 11:04:46;;;;;;;14.90;3.70;;;;;;;41.03;24.56;99532.33;1784975;78;21509;-64
2021/07/02 11:07:22;;;;;;;5.97;2.80;;;;;;;40.94;24.41;99538.26;1785070;78;22601;-63
2021/07/02 11:09:58;;;;;;;11.12;3.40;;;;;;;40.81;24.52;99533.91;1785688;78;20955;-64
2021/07/02 11:12:47;;;;;;;3.42;3.02;;;;;;;40.66;25.17;99537.19;1805050;78;21493;-63
2021/07/02 11:15:19;;;;;;;3.52;2.65;;;;;;;40.60;25.44;99538.20;1785551;78;21077;-64
2021/07/02 11:18:11;;;;;;;4.05;2.62;;;;;;;40.68;25.39;99541.05;1785466;78;21464;-63
2021/07/02 11:20:38;;;;;;;4.37;2.60;;;;;;;40.78;25.63;99541.55;1794101;78;20940;-64
2021/07/02 11:23:18;;;;;;;6.30;3.20;;;;;;;40.94;24.97;99533.38;1768482;79;21020;-63
2021/07/02 11:25:54;;;;;;;4.83;2.50;;;;;;;40.95;24.74;99537.06;1767999;79;21105;-65
2021/07/02 11:28:48;;;;;;;3.77;2.77;;;;;;;41.08;25.08;99542.23;1767761;79;20896;-65
2021/07/02 11:31:14;;;;;;;4.83;2.58;;;;;;;41.23;24.46;99540.12;1767784;79;20994;-65
2021/07/02 11:33:41;;;;;;;4.28;2.50;;;;;;;41.37;24.15;99538.38;1768306;79;21054;-64
2021/07/02 11:36:13;;;;;;;5.05;2.50;;;;;;;41.56;23.82;99541.31;1766028;79;20965;-65
2021/07/02 11:38:51;;;;;;;6.85;3.00;;;;;;;41.62;24.06;99534.77;1768390;79;21808;-64
2021/07/02 11:41:30;;;;;;;3.98;2.42;;;;;;;41.42;24.40;99533.88;1768522;79;20907;-65
2021/07/02 11:43:59;;;;;;;4.50;2.40;;;;;;;41.01;25.02;99536.84;1768665;79;21055;-65
2021/07/02 11:46:25;;;;;;;4.67;2.37;;;;;;;41.02;25.11;99538.39;1767999;79;21030;-65
2021/07/02 11:48:54;;;;;;;12.98;3.17;;;;;;;41.18;24.58;99541.95;1768731;79;21563;-65
2021/07/02 11:51:28;;;;;;;3.37;2.42;;;;;;;41.12;24.64;99545.53;1773180;79;21761;-64
2021/07/02 11:53:58;;;;;;;4.00;2.72;;;;;;;41.11;24.26;99534.39;1768703;79;20998;-65